Time;durP1;ratioP1;P1;durP2;ratioP2;P2;SDS_P1;SDS_P2;PMS_P1;PMS_P2;Temp;Humidity;BMP_temperature;BMP_pressure;BME280_temperature;BME280_humidity;BME280_pressure;Samples;Min_cycle;Max_cycle;Signal;HPM_P1;HPM_P2
2022/07/15 00:00:26;;;;;;;4.37;3.90;;;20.90;51.30;;;;;;5079562;28;20183;-48
2022/07/15 00:02:52;;;;;;;4.20;3.80;;;20.80;51.40;;;;;;5079257;28;20414;-49
2022/07/15 00:05:17;;;;;;;4.70;3.33;;;20.80;51.30;;;;;;5078855;28;20242;-49
2022/07/15 00:07:43;;;;;;;3.47;3.17;;;20.80;51.50;;;;;;5078256;28;20180;-50
2022/07/15 00:10:15;;;;;;;4.13;3.70;;;20.80;51.40;;;;;;5077477;28;20187;-48
2022/07/15 00:12:45;;;;;;;4.70;3.40;;;20.70;51.50;;;;;;5078616;28;20192;-49
2022/07/15 00:15:11;;;;;;;6.03;3.43;;;20.70;51.60;;;;;;5077991;28;20500;-48
2022/07/15 00:17:37;;;;;;;4.13;3.53;;;20.70;51.50;;;;;;5077634;28;20467;-50
2022/07/15 00:20:03;;;;;;;4.40;4.00;;;20.70;51.50;;;;;;5078051;28;20440;-50
2022/07/15 00:22:29;;;;;;;4.10;3.33;;;20.70;51.60;;;;;;5078251;28;20480;-52
2022/07/15 00:24:55;;;;;;;8.70;4.00;;;20.70;51.60;;;;;;5078301;28;20435;-50
2022/07/15 00:27:20;;;;;;;4.43;4.03;;;20.70;51.80;;;;;;5078820;28;20176;-49
2022/07/15 00:29:46;;;;;;;4.10;3.70;;;20.60;51.50;;;;;;5078139;28;20191;-50
2022/07/15 00:32:12;;;;;;;4.50;3.73;;;20.60;51.80;;;;;;5078547;28;20251;-49
2022/07/15 00:34:37;;;;;;;5.50;3.30;;;20.60;51.80;;;;;;5078426;28;20618;-49
2022/07/15 00:37:03;;;;;;;5.80;3.80;;;20.60;51.80;;;;;;5076781;28;20211;-48
2022/07/15 00:39:29;;;;;;;5.40;3.67;;;20.50;51.80;;;;;;5077796;28;20197;-49
2022/07/15 00:41:55;;;;;;;4.17;3.77;;;20.50;51.80;;;;;;5076931;28;20414;-49
2022/07/15 00:44:20;;;;;;;3.70;3.40;;;20.50;51.80;;;;;;5078376;28;20608;-50
2022/07/15 00:46:46;;;;;;;4.03;3.37;;;20.50;51.90;;;;;;5077207;28;20181;-50
2022/07/15 00:49:12;;;;;;;4.83;3.83;;;20.50;51.60;;;;;;5077195;28;20244;-50
2022/07/15 00:51:44;;;;;;;4.30;3.60;;;20.40;51.60;;;;;;5077844;28;20184;-49
2022/07/15 00:54:12;;;;;;;4.03;3.17;;;20.40;51.70;;;;;;5077022;28;20221;-49
2022/07/15 00:56:44;;;;;;;5.50;3.60;;;20.30;51.40;;;;;;5078141;28;20497;-50
2022/07/15 00:59:10;;;;;;;4.40;3.10;;;20.30;51.60;;;;;;5059738;28;20532;-50
2022/07/15 01:01:36;;;;;;;4.30;3.47;;;20.30;51.70;;;;;;5076298;28;20920;-50
2022/07/15 01:04:05;;;;;;;4.90;3.30;;;20.20;51.60;;;;;;5075576;28;20449;-49
2022/07/15 01:06:31;;;;;;;4.90;2.97;;;20.20;51.20;;;;;;5076530;28;20232;-49
2022/07/15 01:08:57;;;;;;;4.80;3.10;;;20.20;51.70;;;;;;5077917;28;20435;-51
2022/07/15 01:11:23;;;;;;;5.30;2.97;;;20.20;51.50;;;;;;5076678;28;20418;-48
2022/07/15 01:13:49;;;;;;;6.93;3.37;;;20.10;51.40;;;;;;5060395;28;20463;-52
2022/07/15 01:16:14;;;;;;;4.13;2.90;;;20.10;51.50;;;;;;5077883;28;20193;-48
2022/07/15 01:18:40;;;;;;;5.10;3.37;;;20.10;51.50;;;;;;5077575;28;20195;-48
2022/07/15 01:21:43;;;;;;;2.93;2.70;;;20.10;51.50;;;;;;5078085;28;20178;-49
2022/07/15 01:24:09;;;;;;;4.90;3.60;;;20.00;51.50;;;;;;5077604;28;20427;-48
2022/07/15 01:26:34;;;;;;;4.70;3.10;;;20.00;51.60;;;;;;5077838;28;20415;-49
2022/07/15 01:29:00;;;;;;;4.67;2.93;;;20.00;51.60;;;;;;5076617;28;20272;-51
2022/07/15 01:31:26;;;;;;;5.23;2.90;;;20.00;51.60;;;;;;5077175;28;20243;-49
2022/07/15 01:33:53;;;;;;;5.53;3.77;;;19.90;51.70;;;;;;5076661;28;20473;-48
2022/07/15 01:36:19;;;;;;;3.33;2.77;;;19.90;51.80;;;;;;5077270;28;20270;-50
2022/07/15 01:38:45;;;;;;;3.47;2.80;;;19.90;51.80;;;;;;5075876;28;20543;-50
2022/07/15 01:41:10;;;;;;;3.10;2.80;;;19.90;52.00;;;;;;5076989;28;20420;-49
2022/07/15 01:43:36;;;;;;;3.30;3.00;;;19.80;52.50;;;;;;5077574;28;20196;-50
2022/07/15 01:46:02;;;;;;;4.10;3.03;;;19.80;52.10;;;;;;5077620;28;20562;-52
2022/07/15 01:51:11;;;;;;;3.47;3.03;;;19.80;52.20;;;;;;5077041;28;20191;-50
2022/07/15 01:53:37;;;;;;;4.00;3.33;;;19.80;52.20;;;;;;5076466;28;20437;-49
2022/07/15 01:56:03;;;;;;;3.97;3.13;;;19.80;52.20;;;;;;5077391;28;20189;-50
2022/07/15 01:58:29;;;;;;;3.10;2.80;;;19.70;52.10;;;;;;5076569;28;20322;-50
2022/07/15 02:00:55;;;;;;;3.80;3.00;;;19.70;52.20;;;;;;5077067;28;20422;-48
2022/07/15 02:03:21;;;;;;;3.77;3.40;;;19.70;52.10;;;;;;5077093;28;20461;-49
2022/07/15 02:05:46;;;;;;;3.67;3.03;;;19.70;51.90;;;;;;5077212;28;20511;-49
2022/07/15 02:08:12;;;;;;;3.20;2.90;;;19.70;51.90;;;;;;5076831;28;20775;-51
2022/07/15 02:10:41;;;;;;;6.03;3.50;;;19.70;52.00;;;;;;5076322;28;20250;-48
2022/07/15 02:13:07;;;;;;;3.60;3.17;;;19.60;52.10;;;;;;5076350;28;20509;-49
2022/07/15 02:15:33;;;;;;;3.30;2.80;;;19.60;52.00;;;;;;5077459;28;20446;-47
2022/07/15 02:17:59;;;;;;;3.50;3.20;;;19.60;52.10;;;;;;5081384;28;20466;-49
2022/07/15 02:20:25;;;;;;;3.60;2.90;;;19.50;52.20;;;;;;5081140;28;20429;-50
2022/07/15 02:22:50;;;;;;;3.00;2.70;;;19.50;52.30;;;;;;5080859;28;20573;-48
2022/07/15 02:25:16;;;;;;;5.80;3.50;;;19.40;52.30;;;;;;5081100;28;20188;-49
2022/07/15 02:27:42;;;;;;;4.03;3.50;;;19.40;52.60;;;;;;5080242;28;20586;-51
2022/07/15 02:30:08;;;;;;;3.60;3.07;;;19.30;52.80;;;;;;5080177;28;20196;-47
2022/07/15 02:32:33;;;;;;;3.73;3.00;;;19.30;52.90;;;;;;5079938;28;20234;-49
2022/07/15 02:34:59;;;;;;;4.40;3.13;;;19.20;53.10;;;;;;5080575;28;20739;-49
2022/07/15 02:37:24;;;;;;;3.73;3.40;;;19.20;53.20;;;;;;5080467;28;20211;-49
2022/07/15 02:39:50;;;;;;;5.03;3.63;;;19.20;53.30;;;;;;5080700;28;20192;-50
2022/07/15 02:42:16;;;;;;;3.73;2.93;;;19.20;53.30;;;;;;5079512;28;20430;-49
2022/07/15 02:44:41;;;;;;;5.33;3.43;;;19.20;53.40;;;;;;5079068;28;20182;-48
2022/07/15 02:47:07;;;;;;;3.40;3.10;;;19.20;53.50;;;;;;5079064;28;20188;-49
2022/07/15 02:49:32;;;;;;;3.80;3.50;;;19.20;53.50;;;;;;5078791;28;20185;-49
2022/07/15 02:51:58;;;;;;;5.03;3.60;;;19.20;53.50;;;;;;5077825;28;20187;-52
2022/07/15 02:54:24;;;;;;;3.60;2.90;;;19.20;53.60;;;;;;5077547;28;20194;-49
2022/07/15 02:56:49;;;;;;;4.33;3.07;;;19.20;53.80;;;;;;5078101;28;20210;-50
2022/07/15 02:59:15;;;;;;;5.30;3.60;;;19.10;53.70;;;;;;5079423;28;20185;-51
2022/07/15 03:01:40;;;;;;;3.47;3.07;;;19.10;53.70;;;;;;5078175;28;20279;-49
2022/07/15 03:04:06;;;;;;;3.80;2.83;;;19.10;53.70;;;;;;5078337;28;20181;-52
2022/07/15 03:06:33;;;;;;;3.90;3.23;;;19.00;53.70;;;;;;5078524;28;20224;-49
2022/07/15 03:08:59;;;;;;;5.53;2.87;;;19.00;53.80;;;;;;5077033;28;20182;-49
2022/07/15 03:11:25;;;;;;;3.40;3.10;;;19.00;53.80;;;;;;5078199;28;20840;-49
2022/07/15 03:13:50;;;;;;;3.70;2.80;;;18.90;53.80;;;;;;5078969;28;20167;-49
2022/07/15 03:16:16;;;;;;;3.53;3.10;;;18.90;53.90;;;;;;5078856;28;20264;-48
2022/07/15 03:18:42;;;;;;;4.73;3.20;;;18.80;53.80;;;;;;5078348;28;20554;-48
2022/07/15 03:21:07;;;;;;;3.33;3.03;;;18.80;54.00;;;;;;5079067;28;20188;-50
2022/07/15 03:23:33;;;;;;;3.10;2.80;;;18.80;54.10;;;;;;5079384;28;20174;-51
2022/07/15 03:25:58;;;;;;;3.50;2.97;;;18.70;54.10;;;;;;5080017;28;20191;-49
2022/07/15 03:28:24;;;;;;;3.80;2.80;;;18.70;54.30;;;;;;5078902;28;20178;-47
2022/07/15 03:30:50;;;;;;;4.67;3.30;;;18.70;54.40;;;;;;5079530;28;20645;-46
2022/07/15 03:33:15;;;;;;;3.70;2.97;;;18.60;54.40;;;;;;5079390;28;20249;-45
2022/07/15 03:35:42;;;;;;;3.90;3.17;;;18.60;54.50;;;;;;5079762;28;20191;-49
2022/07/15 03:38:09;;;;;;;6.17;3.90;;;18.60;54.50;;;;;;5079201;28;20260;-48
2022/07/15 03:40:34;;;;;;;4.20;3.10;;;18.60;54.50;;;;;;5078702;28;20837;-49
2022/07/15 03:43:00;;;;;;;4.73;3.70;;;18.60;54.60;;;;;;5078609;28;20520;-50
2022/07/15 03:45:26;;;;;;;4.43;3.33;;;18.60;54.70;;;;;;5078897;28;20197;-49
2022/07/15 03:47:52;;;;;;;4.70;2.97;;;18.60;54.60;;;;;;5079057;28;20177;-47
2022/07/15 03:50:17;;;;;;;5.03;3.23;;;18.60;54.80;;;;;;5079480;28;20523;-51
2022/07/15 03:52:43;;;;;;;3.20;2.90;;;18.60;54.80;;;;;;5079025;28;20568;-48
2022/07/15 03:55:10;;;;;;;3.57;3.27;;;18.60;54.90;;;;;;5077414;28;20389;-49
2022/07/15 03:57:36;;;;;;;4.27;3.87;;;18.60;54.90;;;;;;5078644;28;20207;-48
2022/07/15 04:00:03;;;;;;;3.40;3.10;;;18.60;55.00;;;;;;5078345;28;20415;-48
2022/07/15 04:02:28;;;;;;;5.20;3.50;;;18.60;55.00;;;;;;5077646;28;20419;-49
2022/07/15 04:04:54;;;;;;;4.03;3.30;;;18.60;55.00;;;;;;5077556;28;20686;-49
2022/07/15 04:07:19;;;;;;;4.60;3.33;;;18.60;55.10;;;;;;5075070;28;20344;-49
2022/07/15 04:09:45;;;;;;;5.23;3.67;;;18.60;55.20;;;;;;5074735;28;20244;-51
2022/07/15 04:12:11;;;;;;;4.90;3.63;;;18.60;55.30;;;;;;5072389;28;20189;-50
2022/07/15 04:14:36;;;;;;;5.40;3.63;;;18.60;55.40;;;;;;5073289;28;20172;-49
2022/07/15 04:17:02;;;;;;;3.90;3.40;;;18.60;55.40;;;;;;5073462;28;20641;-48
2022/07/15 04:19:28;;;;;;;4.67;3.50;;;18.60;55.30;;;;;;5073504;28;20182;-46
2022/07/15 04:21:54;;;;;;;4.33;3.40;;;18.50;54.90;;;;;;5074639;28;20449;-47
2022/07/15 04:24:20;;;;;;;5.10;3.73;;;18.30;55.00;;;;;;5074815;28;20431;-47
2022/07/15 04:26:45;;;;;;;4.70;3.73;;;18.10;56.00;;;;;;5076279;28;20214;-45
2022/07/15 04:29:11;;;;;;;4.30;3.90;;;17.90;56.60;;;;;;5076062;28;20186;-47
2022/07/15 04:31:37;;;;;;;4.87;4.33;;;17.70;57.10;;;;;;5075757;28;20392;-44
2022/07/15 04:34:02;;;;;;;4.43;3.83;;;17.50;57.20;;;;;;5075554;28;20263;-44
2022/07/15 04:36:28;;;;;;;5.17;3.77;;;17.30;57.50;;;;;;5076480;28;20634;-46
2022/07/15 04:38:53;;;;;;;5.60;3.97;;;17.20;57.80;;;;;;5075373;28;20567;-45
2022/07/15 04:41:19;;;;;;;4.57;4.07;;;17.10;58.20;;;;;;5078078;28;20451;-47
2022/07/15 04:43:45;;;;;;;5.83;4.80;;;17.00;58.60;;;;;;5076920;28;20482;-45
2022/07/15 04:46:11;;;;;;;4.83;4.10;;;17.00;59.60;;;;;;5074716;28;20271;-45
2022/07/15 04:51:20;;;;;;;4.70;4.30;;;16.90;60.90;;;;;;5073480;28;20183;-44
2022/07/15 04:53:46;;;;;;;4.60;4.20;;;16.80;61.10;;;;;;5074421;28;20698;-44
2022/07/15 04:56:12;;;;;;;5.03;4.47;;;16.80;61.70;;;;;;5072175;28;20205;-44
2022/07/15 04:58:38;;;;;;;6.00;4.70;;;16.80;61.70;;;;;;5072140;28;20173;-47
2022/07/15 05:01:03;;;;;;;4.97;4.10;;;16.70;62.00;;;;;;5073899;28;20734;-46
2022/07/15 05:03:29;;;;;;;4.90;4.30;;;16.70;62.60;;;;;;5073323;28;20208;-45
2022/07/15 05:05:55;;;;;;;6.27;4.50;;;16.70;63.20;;;;;;5073588;28;20264;-44
2022/07/15 05:08:21;;;;;;;4.60;4.00;;;16.80;63.70;;;;;;5073413;28;20175;-43
2022/07/15 05:10:46;;;;;;;4.87;4.37;;;16.80;64.30;;;;;;5074868;28;20200;-44
2022/07/15 05:13:12;;;;;;;5.20;3.70;;;17.00;66.90;;;;;;5074569;28;20478;-44
2022/07/15 05:15:38;;;;;;;4.63;4.23;;;17.20;67.60;;;;;;5073310;28;20190;-44
2022/07/15 05:18:04;;;;;;;4.50;4.10;;;17.50;66.90;;;;;;5070643;28;20472;-44
2022/07/15 05:20:29;;;;;;;4.93;3.53;;;17.70;65.90;;;;;;5071370;28;20276;-44
2022/07/15 05:22:55;;;;;;;5.33;4.73;;;17.90;64.90;;;;;;5071526;28;20271;-44
2022/07/15 05:25:21;;;;;;;5.93;4.07;;;18.00;64.30;;;;;;5072760;28;20184;-43
2022/07/15 05:27:47;;;;;;;5.70;4.03;;;18.20;63.90;;;;;;5071921;28;20267;-44
2022/07/15 05:30:15;;;;;;;5.60;4.80;;;18.40;63.60;;;;;;5071814;28;20319;-44
2022/07/15 05:32:41;;;;;;;7.87;5.87;;;18.50;63.10;;;;;;5073158;28;20428;-43
2022/07/15 05:35:08;;;;;;;5.10;4.57;;;18.70;62.30;;;;;;5072521;28;20444;-44
2022/07/15 05:37:38;;;;;;;4.70;4.30;;;18.80;62.00;;;;;;5073809;28;20257;-45
2022/07/15 05:40:06;;;;;;;5.30;4.80;;;18.90;61.90;;;;;;5074108;28;20425;-44
2022/07/15 05:42:32;;;;;;;6.93;4.60;;;19.00;61.50;;;;;;5073488;28;20946;-45
2022/07/15 05:44:57;;;;;;;7.47;5.77;;;19.10;60.90;;;;;;5071803;28;20402;-44
2022/07/15 05:47:23;;;;;;;6.03;5.00;;;19.20;60.50;;;;;;5070421;28;20179;-45
2022/07/15 05:49:48;;;;;;;5.10;4.60;;;19.30;60.20;;;;;;5070276;28;20197;-46
2022/07/15 05:52:14;;;;;;;6.17;4.77;;;19.40;60.00;;;;;;5069645;28;20407;-44
2022/07/15 05:54:40;;;;;;;4.53;4.10;;;19.60;59.60;;;;;;5068643;28;20429;-46
2022/07/15 05:57:05;;;;;;;4.60;4.20;;;19.70;59.30;;;;;;5071243;28;20731;-45
2022/07/15 05:59:31;;;;;;;5.80;3.77;;;19.80;58.90;;;;;;5073474;28;20180;-44
2022/07/15 06:01:58;;;;;;;4.87;4.13;;;20.00;58.50;;;;;;5072900;28;20261;-45
2022/07/15 06:04:26;;;;;;;4.33;3.93;;;20.20;58.20;;;;;;5055706;28;20179;-44
2022/07/15 06:06:53;;;;;;;6.13;4.00;;;20.40;57.80;;;;;;5071909;28;20434;-44
2022/07/15 06:09:19;;;;;;;5.70;4.23;;;20.50;57.30;;;;;;5072044;28;20434;-44
2022/07/15 06:11:45;;;;;;;6.10;4.60;;;20.60;56.70;;;;;;5060510;28;20545;-43
2022/07/15 06:14:11;;;;;;;7.37;4.10;;;20.60;56.50;;;;;;5052814;28;20509;-43
2022/07/15 06:16:37;;;;;;;5.33;3.80;;;20.60;56.70;;;;;;5052387;28;20208;-46
2022/07/15 06:19:03;;;;;;;5.47;3.37;;;20.70;55.60;;;;;;5052431;28;20415;-44
2022/07/15 06:21:30;;;;;;;4.63;2.30;;;20.70;51.60;;;;;;5052491;28;20213;-44
2022/07/15 06:23:55;;;;;;;4.13;2.90;;;20.80;49.50;;;;;;5053542;28;20175;-44
2022/07/15 06:26:21;;;;;;;8.67;3.00;;;20.80;48.10;;;;;;5053163;28;20491;-46
2022/07/15 06:28:47;;;;;;;4.83;2.67;;;20.70;47.40;;;;;;5051873;28;20489;-45
2022/07/15 06:31:12;;;;;;;3.60;2.20;;;20.70;48.30;;;;;;5052344;28;20278;-43
2022/07/15 06:33:38;;;;;;;4.40;2.30;;;20.70;48.10;;;;;;5053103;28;20272;-44
2022/07/15 06:36:04;;;;;;;3.70;2.57;;;20.80;46.70;;;;;;5050559;28;20339;-44
2022/07/15 06:38:32;;;;;;;5.80;2.93;;;20.70;47.20;;;;;;5051278;28;20568;-46
2022/07/15 06:40:57;;;;;;;4.20;2.90;;;20.80;46.90;;;;;;5050915;28;20283;-45
2022/07/15 06:43:23;;;;;;;6.17;3.00;;;20.80;46.40;;;;;;5052757;28;20451;-47
2022/07/15 06:45:48;;;;;;;3.67;2.70;;;20.90;48.10;;;;;;5051268;28;20187;-44
2022/07/15 06:48:14;;;;;;;4.63;2.63;;;21.10;48.80;;;;;;5052728;28;20256;-45
2022/07/15 06:50:40;;;;;;;4.00;2.53;;;21.30;48.80;;;;;;5052763;28;20216;-47
2022/07/15 06:53:05;;;;;;;4.50;2.63;;;21.50;46.60;;;;;;5052281;28;20173;-45
2022/07/15 06:55:31;;;;;;;4.40;3.10;;;21.60;47.10;;;;;;5051439;28;20638;-45
2022/07/15 06:57:57;;;;;;;2.50;2.27;;;21.80;47.70;;;;;;5053319;28;20621;-45
2022/07/15 07:00:22;;;;;;;6.00;2.60;;;22.00;47.00;;;;;;5053504;28;20493;-47
2022/07/15 07:02:48;;;;;;;3.50;2.77;;;22.10;46.60;;;;;;5053801;28;20177;-45
2022/07/15 07:05:13;;;;;;;8.43;3.40;;;22.30;46.80;;;;;;5056931;28;20199;-44
2022/07/15 07:07:39;;;;;;;6.47;3.07;;;22.30;46.70;;;;;;5055427;28;20182;-46
2022/07/15 07:10:05;;;;;;;3.40;2.80;;;22.30;46.50;;;;;;5056142;28;20575;-46
2022/07/15 07:12:31;;;;;;;5.20;2.53;;;22.30;46.60;;;;;;5057862;28;20188;-46
2022/07/15 07:14:56;;;;;;;4.70;2.33;;;22.20;46.90;;;;;;5057528;28;20411;-44
2022/07/15 07:17:22;;;;;;;5.63;2.50;;;22.20;47.80;;;;;;5058146;28;20493;-45
2022/07/15 07:19:48;;;;;;;3.63;2.37;;;22.40;47.50;;;;;;5056027;28;20256;-46
2022/07/15 07:22:14;;;;;;;5.00;2.60;;;22.60;46.00;;;;;;5054924;28;20176;-45
2022/07/15 07:24:40;;;;;;;5.53;2.80;;;22.70;45.80;;;;;;5054637;28;20480;-46
2022/07/15 07:27:06;;;;;;;2.83;2.23;;;22.70;45.00;;;;;;5054408;28;20192;-44
2022/07/15 07:29:31;;;;;;;4.23;2.43;;;22.80;46.00;;;;;;5053892;28;20427;-44
2022/07/15 07:31:57;;;;;;;4.10;2.40;;;23.00;45.60;;;;;;5054126;28;20556;-44
2022/07/15 07:34:23;;;;;;;3.80;2.23;;;23.30;45.70;;;;;;5053990;28;20172;-44
2022/07/15 07:36:49;;;;;;;4.23;2.60;;;23.70;45.20;;;;;;5053197;28;20215;-45
2022/07/15 07:39:16;;;;;;;10.87;3.93;;;24.00;43.40;;;;;;5053988;28;20166;-45
2022/07/15 07:41:42;;;;;;;8.33;3.30;;;24.30;42.50;;;;;;5054905;28;20440;-45
2022/07/15 07:44:08;;;;;;;6.23;2.60;;;24.50;43.80;;;;;;5055498;28;20453;-44
2022/07/15 07:46:34;;;;;;;2.80;2.13;;;24.90;42.70;;;;;;5053011;28;20468;-43
2022/07/15 07:48:59;;;;;;;3.70;2.37;;;25.10;41.40;;;;;;5053308;28;20691;-46
2022/07/15 07:51:25;;;;;;;5.40;2.50;;;24.90;40.00;;;;;;5053413;28;20419;-47
2022/07/15 07:53:51;;;;;;;3.23;2.50;;;24.80;41.00;;;;;;5054912;28;20468;-45
2022/07/15 07:56:16;;;;;;;5.93;3.80;;;24.70;40.20;;;;;;5055482;28;20267;-46
2022/07/15 07:58:42;;;;;;;3.30;2.60;;;24.60;40.20;;;;;;5054275;28;20220;-45
2022/07/15 08:01:08;;;;;;;6.73;3.13;;;24.50;40.70;;;;;;5053405;28;20176;-45
2022/07/15 08:03:34;;;;;;;4.10;2.47;;;24.60;40.40;;;;;;5054904;28;20269;-46
2022/07/15 08:05:59;;;;;;;3.00;2.70;;;24.70;41.10;;;;;;5056803;28;20770;-45
2022/07/15 08:08:25;;;;;;;3.80;2.43;;;25.10;41.40;;;;;;5054999;28;20596;-46
2022/07/15 08:10:54;;;;;;;3.83;2.37;;;25.40;41.30;;;;;;5053367;28;20271;-45
2022/07/15 08:13:22;;;;;;;4.00;2.50;;;25.80;41.30;;;;;;5052779;28;20180;-46
2022/07/15 08:15:49;;;;;;;4.03;2.57;;;26.20;40.00;;;;;;5053109;28;20482;-45
2022/07/15 08:18:16;;;;;;;3.63;2.37;;;26.40;39.80;;;;;;5052151;28;21081;-45
2022/07/15 08:20:41;;;;;;;3.40;2.40;;;26.80;39.50;;;;;;5055016;28;20420;-48
2022/07/15 08:23:07;;;;;;;8.50;3.33;;;27.00;39.20;;;;;;5059498;28;20649;-46
2022/07/15 08:25:36;;;;;;;5.83;2.90;;;27.20;38.70;;;;;;5076301;28;20516;-47
2022/07/15 08:28:02;;;;;;;4.83;2.83;;;27.60;38.80;;;;;;5075727;28;20395;-46
2022/07/15 08:30:29;;;;;;;3.00;2.70;;;28.00;37.60;;;;;;5075488;28;20422;-46
2022/07/15 08:32:55;;;;;;;3.87;2.97;;;27.70;36.50;;;;;;5075791;28;20454;-46
2022/07/15 08:35:22;;;;;;;8.20;3.03;;;27.20;36.70;;;;;;5074108;28;20807;-45
2022/07/15 08:37:47;;;;;;;3.93;2.83;;;26.80;37.10;;;;;;5074747;28;20475;-45
2022/07/15 08:40:14;;;;;;;3.83;3.20;;;26.60;38.10;;;;;;5076337;28;20434;-45
2022/07/15 08:42:42;;;;;;;4.13;2.40;;;26.80;38.60;;;;;;5074349;28;20199;-47
2022/07/15 08:45:08;;;;;;;5.37;2.70;;;26.80;37.40;;;;;;5074723;28;20450;-45
2022/07/15 08:47:37;;;;;;;5.67;2.70;;;27.10;37.30;;;;;;5074339;28;20435;-44
2022/07/15 08:50:04;;;;;;;4.70;2.67;;;27.10;37.40;;;;;;5073011;28;20484;-44
2022/07/15 08:52:32;;;;;;;3.43;2.80;;;27.30;38.50;;;;;;5073200;28;20443;-44
2022/07/15 08:54:58;;;;;;;4.70;2.53;;;27.70;39.00;;;;;;5072888;28;20420;-44
2022/07/15 08:57:24;;;;;;;4.60;3.07;;;28.20;38.10;;;;;;5073437;28;20483;-47
2022/07/15 08:59:51;;;;;;;3.00;2.73;;;28.50;37.60;;;;;;5074373;28;20204;-45
2022/07/15 09:02:21;;;;;;;3.70;2.67;;;28.80;37.00;;;;;;5072826;28;20449;-46
2022/07/15 09:05:17;;;;;;;2.87;2.40;;;29.10;36.80;;;;;;5073186;28;20692;-45
2022/07/15 09:08:10;;;;;;;2.90;2.33;;;29.40;35.90;;;;;;5073803;28;20535;-45
2022/07/15 09:10:44;;;;;;;3.63;2.80;;;29.60;35.20;;;;;;5073771;28;20445;-46
2022/07/15 09:13:21;;;;;;;6.10;2.50;;;29.70;34.90;;;;;;5073464;28;20420;-46
2022/07/15 09:15:47;;;;;;;3.00;2.70;;;29.80;35.90;;;;;;5076051;28;20417;-44
2022/07/15 09:18:15;;;;;;;4.83;3.00;;;29.90;35.70;;;;;;5074887;28;20489;-44
2022/07/15 09:20:42;;;;;;;5.47;3.30;;;30.20;35.90;;;;;;5075522;28;20187;-47
2022/07/15 09:23:09;;;;;;;5.17;2.77;;;30.60;35.70;;;;;;5075228;28;20540;-45
2022/07/15 09:25:36;;;;;;;6.00;3.50;;;30.80;36.10;;;;;;5073005;28;20402;-46
2022/07/15 09:28:07;;;;;;;4.77;3.63;;;31.00;35.30;;;;;;5074641;28;20408;-48
2022/07/15 09:33:34;;;;;;;4.70;4.03;;;31.40;34.70;;;;;;5073374;28;20430;-46
2022/07/15 09:36:15;;;;;;;5.30;3.40;;;31.50;34.60;;;;;;5074721;28;20651;-46
2022/07/15 09:38:57;;;;;;;4.10;3.60;;;31.40;32.80;;;;;;5071893;28;20449;-47
2022/07/15 09:41:26;;;;;;;3.97;3.50;;;31.20;32.60;;;;;;5074330;28;20833;-47
2022/07/15 09:44:17;;;;;;;4.03;3.37;;;30.90;32.50;;;;;;5074108;28;20524;-47
2022/07/15 09:46:47;;;;;;;5.33;3.37;;;30.60;32.90;;;;;;5067208;28;20432;-48
2022/07/15 09:49:15;;;;;;;4.07;3.30;;;30.60;32.90;;;;;;5073151;28;20401;-46
2022/07/15 09:51:54;;;;;;;4.57;3.70;;;30.60;32.90;;;;;;5071930;28;20578;-46
2022/07/15 09:54:22;;;;;;;4.00;3.60;;;30.60;33.00;;;;;;5071689;28;20488;-46
2022/07/15 09:56:48;;;;;;;4.03;3.63;;;30.90;33.60;;;;;;5072438;28;20499;-47
2022/07/15 09:59:15;;;;;;;5.03;3.63;;;31.40;33.50;;;;;;5074023;28;20424;-46
2022/07/15 10:01:41;;;;;;;4.87;3.40;;;31.90;32.90;;;;;;5073399;28;20441;-46
2022/07/15 10:04:08;;;;;;;7.30;3.93;;;32.40;33.70;;;;;;5074368;28;20403;-47
2022/07/15 10:06:38;;;;;;;4.70;3.93;;;32.80;33.40;;;;;;5072558;28;20428;-47
2022/07/15 10:09:06;;;;;;;4.37;3.97;;;32.60;31.40;;;;;;5071555;28;20715;-47
2022/07/15 10:11:36;;;;;;;4.13;3.73;;;32.50;31.60;;;;;;5072480;28;20465;-47
2022/07/15 10:14:04;;;;;;;5.33;3.67;;;32.50;31.70;;;;;;5071690;28;20469;-49
2022/07/15 10:17:08;;;;;;;4.20;3.80;;;32.30;31.50;;;;;;5072235;28;20536;-47
2022/07/15 10:19:55;;;;;;;6.63;3.63;;;31.70;31.90;;;;;;5070552;28;20737;-49
2022/07/15 10:22:24;;;;;;;4.13;3.83;;;31.30;32.30;;;;;;5069505;28;20433;-46
2022/07/15 10:24:57;;;;;;;6.30;3.97;;;30.90;32.60;;;;;;5070873;28;20381;-47
2022/07/15 10:27:28;;;;;;;5.20;3.60;;;30.60;32.60;;;;;;5067681;28;20442;-46
2022/07/15 10:29:54;;;;;;;4.80;4.23;;;30.30;33.20;;;;;;5070094;28;20444;-46
2022/07/15 10:32:20;;;;;;;5.60;4.97;;;30.40;33.70;;;;;;5068092;28;21015;-46
2022/07/15 10:34:45;;;;;;;4.27;3.67;;;30.80;33.70;;;;;;5069933;28;20747;-47
2022/07/15 10:37:12;;;;;;;4.90;3.60;;;31.00;33.00;;;;;;5071133;28;20290;-47
2022/07/15 10:39:51;;;;;;;5.90;3.90;;;30.90;33.40;;;;;;5073570;28;20207;-45
2022/07/15 10:42:18;;;;;;;4.20;3.80;;;31.40;33.10;;;;;;5073439;28;20407;-50
2022/07/15 10:45:01;;;;;;;7.47;3.93;;;32.00;32.30;;;;;;5074679;28;20418;-47
2022/07/15 10:47:27;;;;;;;3.90;3.50;;;32.40;32.20;;;;;;5074924;28;20714;-46
2022/07/15 10:49:54;;;;;;;4.70;3.60;;;32.20;31.90;;;;;;5074734;28;20399;-48
2022/07/15 10:52:24;;;;;;;3.70;3.40;;;32.20;33.00;;;;;;5073172;28;20469;-48
2022/07/15 10:54:57;;;;;;;4.07;3.63;;;32.60;33.00;;;;;;5074458;28;20507;-46
2022/07/15 10:57:41;;;;;;;4.47;3.63;;;32.70;32.50;;;;;;5071573;28;20731;-51
2022/07/15 11:00:15;;;;;;;4.23;3.83;;;32.80;32.60;;;;;;5070055;28;20505;-47
2022/07/15 11:03:00;;;;;;;5.07;3.97;;;33.00;32.40;;;;;;5072936;28;20909;-46
2022/07/15 11:05:27;;;;;;;4.73;4.33;;;33.40;32.30;;;;;;5072860;28;20395;-47
2022/07/15 11:07:52;;;;;;;5.10;4.20;;;33.70;31.50;;;;;;5071537;28;20403;-47
2022/07/15 11:10:19;;;;;;;4.20;3.73;;;33.80;31.40;;;;;;5071062;28;20495;-46
2022/07/15 11:12:48;;;;;;;4.20;3.90;;;34.30;30.50;;;;;;5074456;28;20479;-48
2022/07/15 11:15:16;;;;;;;4.60;4.20;;;34.70;30.40;;;;;;5076442;28;20423;-48
2022/07/15 11:17:45;;;;;;;6.97;3.70;;;34.70;29.50;;;;;;5074528;28;20442;-47
2022/07/15 11:20:15;;;;;;;6.80;3.83;;;33.90;29.90;;;;;;5076004;28;20423;-48
2022/07/15 11:22:47;;;;;;;4.27;3.80;;;33.60;30.20;;;;;;5076432;28;20909;-47
2022/07/15 11:25:17;;;;;;;5.67;4.60;;;33.50;30.50;;;;;;5074307;28;20416;-46
2022/07/15 11:28:04;;;;;;;4.07;3.70;;;33.10;30.20;;;;;;5071978;28;20481;-48
2022/07/15 11:30:33;;;;;;;5.03;3.90;;;33.20;30.30;;;;;;5073222;28;20428;-48
2022/07/15 11:33:01;;;;;;;4.70;3.40;;;33.30;30.50;;;;;;5075199;28;20435;-48
2022/07/15 11:35:28;;;;;;;5.33;3.67;;;34.00;31.40;;;;;;5075735;28;20396;-49
2022/07/15 11:37:58;;;;;;;4.17;3.53;;;34.20;30.00;;;;;;5074068;28;20511;-49
2022/07/15 11:45:57;;;;;;;5.63;4.33;;;34.10;30.00;;;;;;5073394;28;20681;-46
2022/07/15 11:48:23;;;;;;;3.90;3.50;;;34.40;30.70;;;;;;5073926;28;20405;-45
2022/07/15 11:50:53;;;;;;;176.57;32.77;;;35.00;30.90;;;;;;5075801;28;20174;-48
2022/07/15 11:53:19;;;;;;;271.53;49.53;;;35.40;30.40;;;;;;5076192;28;20272;-47
2022/07/15 11:55:49;;;;;;;10.83;5.13;;;36.00;31.00;;;;;;5075883;28;20517;-48
2022/07/15 11:58:14;;;;;;;5.40;4.40;;;36.00;28.90;;;;;;5075257;28;20202;-46
2022/07/15 12:00:47;;;;;;;4.10;3.70;;;35.70;28.80;;;;;;5074738;28;20831;-48
2022/07/15 12:03:12;;;;;;;3.83;3.43;;;35.30;29.10;;;;;;5075981;28;20591;-47
2022/07/15 12:05:38;;;;;;;4.70;3.80;;;34.70;28.90;;;;;;5074620;28;20415;-46
2022/07/15 12:08:04;;;;;;;5.20;4.43;;;34.20;29.50;;;;;;5074387;28;20424;-48
2022/07/15 12:10:38;;;;;;;4.67;3.73;;;33.70;30.00;;;;;;5075896;28;20182;-49
2022/07/15 12:13:05;;;;;;;6.23;3.83;;;33.70;30.10;;;;;;5076263;28;20563;-48
2022/07/15 12:15:34;;;;;;;4.30;3.97;;;33.90;30.20;;;;;;5074260;28;20436;-47
2022/07/15 12:17:59;;;;;;;5.33;3.70;;;33.80;30.20;;;;;;5074631;28;20911;-47
2022/07/15 12:20:26;;;;;;;4.10;3.70;;;33.70;30.60;;;;;;5072175;28;20416;-47
2022/07/15 12:23:02;;;;;;;5.57;3.70;;;33.30;30.10;;;;;;5071579;28;20490;-45
2022/07/15 12:25:28;;;;;;;6.33;3.83;;;33.20;30.60;;;;;;5068680;28;20433;-47
2022/07/15 12:27:53;;;;;;;4.30;3.60;;;33.50;31.10;;;;;;5070142;28;20415;-46
2022/07/15 12:30:19;;;;;;;5.50;3.57;;;33.90;30.60;;;;;;5069247;28;20635;-47
2022/07/15 12:32:44;;;;;;;7.87;3.67;;;34.10;30.50;;;;;;5069553;28;20209;-46
2022/07/15 12:35:10;;;;;;;5.20;3.80;;;34.00;31.20;;;;;;5067333;28;20306;-47
2022/07/15 12:37:42;;;;;;;5.83;3.70;;;34.40;30.70;;;;;;5070240;28;20577;-47
2022/07/15 12:40:13;;;;;;;8.70;3.90;;;34.40;30.40;;;;;;5071064;28;20479;-48
2022/07/15 12:42:44;;;;;;;6.50;3.80;;;33.70;31.00;;;;;;5074588;28;20841;-48
2022/07/15 12:45:15;;;;;;;9.50;4.10;;;33.50;31.30;;;;;;5072092;28;20431;-47
2022/07/15 12:48:07;;;;;;;6.93;4.80;;;34.00;31.40;;;;;;5072141;28;20454;-47
2022/07/15 12:50:34;;;;;;;5.40;3.23;;;34.40;31.50;;;;;;5072641;28;20423;-47
2022/07/15 12:53:00;;;;;;;9.37;4.57;;;34.90;31.00;;;;;;5074340;28;20690;-47
2022/07/15 12:55:31;;;;;;;7.80;4.70;;;35.30;31.10;;;;;;5075775;28;20443;-47
2022/07/15 12:58:09;;;;;;;4.23;3.37;;;35.90;30.40;;;;;;5075285;28;20483;-47
2022/07/15 13:00:35;;;;;;;45.63;11.67;;;35.80;29.50;;;;;;5074972;28;20406;-46